Flight Track Log - Related Links

Times and Time Zones

All times are in EDT time to prevent confusion due to time zone crossing. See the N960SW flight status page for this flight to view local times or setup timezone preferences in your user account.

Time Position Orientation Groundspeed Altitude Reporting Facility
EDT Latitude Longitude Course Direction KTS MPH feet Rate Location/Type
Sat 08:17:31 AM 44.7492 -91.4603 181° South 428 493 7,800  Level Minneapolis Center
Sat 08:18:31 AM 44.6825 -91.4625 181° South 373 429 10,000 2,450 Climbing Minneapolis Center
Sat 08:19:31 AM 44.5972 -91.4656 182° South 317 365 12,700 2,433 Climbing Minneapolis Center
Sat 08:21:31 AM 44.4225 -91.4744 185° South 315 362 17,300 2,133 Climbing Minneapolis Center
Sat 08:22:31 AM 44.3289 -91.4864 183° South 333 383 19,100 1,700 Climbing Minneapolis Center
Sat 08:23:31 AM 44.2331 -91.4925 180° South 343 395 20,700 1,900 Climbing Minneapolis Center
Sat 08:24:31 AM 44.1394 -91.4928 184° South 343 395 22,900 1,286 Climbing Minneapolis Center
Sat 08:26:05 AM 43.9747 -91.5072 183° South 347 399 24,000 740 Climbing Chicago Center
Sat 08:27:05 AM 43.8725 -91.5150 182° South 358 412 24,800 900 Climbing Chicago Center
Sat 08:28:05 AM 43.7786 -91.5203 181° South 378 435 25,800 1,000 Climbing Chicago Center
Sat 08:29:05 AM 43.6783 -91.5225 181° South 378 435 26,800 600 Climbing Chicago Center
Sat 08:30:05 AM 43.5722 -91.5244 182° South 383 441 27,000 100 Climbing Chicago Center
Sat 08:31:05 AM 43.4575 -91.5289 182° South 396 456 27,000  Level Chicago Center
Sat 08:32:05 AM 43.3428 -91.5336 181° South 407 468 27,000  Level Chicago Center
Sat 08:33:05 AM 43.2239 -91.5378 183° South 419 482 27,000  Level Chicago Center
Sat 08:34:05 AM 43.1069 -91.5450 182° South 419 482 27,000  Level Chicago Center
Sat 08:35:05 AM 42.9861 -91.5494 181° South 425 489 27,000  Level Chicago Center
Sat 08:36:05 AM 42.8736 -91.5511 182° South 425 489 27,000  Level Chicago Center
Sat 08:37:05 AM 42.7525 -91.5581 181° South 425 489 27,000  Level Chicago Center
Sat 08:38:05 AM 42.6272 -91.5622 183° South 420 483 27,000  Level Chicago Center
Sat 08:39:05 AM 42.5125 -91.5694 182° South 420 483 27,000  Level Chicago Center
Sat 08:40:05 AM 42.4000 -91.5739 182° South 420 483 27,000  Level Chicago Center
Sat 08:41:05 AM 42.2872 -91.5783 183° South 414 476 27,000  Level Chicago Center
Sat 08:42:05 AM 42.1744 -91.5856 182° South 414 476 27,000  Level Chicago Center
Sat 08:43:05 AM 42.0597 -91.5900 180° South 414 476 27,000  Level Chicago Center
Sat 08:44:05 AM 41.9453 -91.5889 131° Southeast 414 476 27,000  Level Chicago Center
Sat 08:45:05 AM 41.8764 -91.4833 116° Southeast 524 603 27,000  Level Chicago Center
Sat 08:46:05 AM 41.8247 -91.3394 115° Southeast 484 557 27,000  Level Chicago Center
Sat 08:47:05 AM 41.7731 -91.1931 117° Southeast 447 514 27,000  Level Chicago Center
Sat 08:48:05 AM 41.7208 -91.0553 117° Southeast 425 489 27,000  Level Chicago Center
Sat 08:49:05 AM 41.6644 -90.9092 116° Southeast 425 489 27,000 -50 Level Chicago Center
Sat 08:50:05 AM 41.6122 -90.7664 116° Southeast 425 489 26,900 -250 Descending Chicago Center
Sat 08:51:05 AM 41.5578 -90.6181 119° Southeast 431 496 26,500 -950 Descending Chicago Center
Sat 08:52:05 AM 41.5069 -90.4950 116° Southeast 419 482 25,000 -750 Descending Chicago Center
Sat 08:53:05 AM 41.4600 -90.3667 116° Southeast 399 459 25,000  Level Chicago Center
Sat 08:54:05 AM 41.4111 -90.2358 117° Southeast 393 452 25,000  Level Chicago Center
Sat 08:55:05 AM 41.3619 -90.1053 117° Southeast 393 452 25,000  Level Chicago Center
Sat 08:56:05 AM 41.3067 -89.9636 117° Southeast 393 452 25,000 -300 Level Chicago Center
Sat 08:57:05 AM 41.2553 -89.8306 117° Southeast 393 452 24,400 -800 Descending Chicago Center
Sat 08:58:05 AM 41.2056 -89.7031 111° Southeast 388 447 23,400 -800 Descending Chicago Center
Sat 08:59:05 AM 41.1683 -89.5733 63° Northeast 383 441 22,800 -1,200 Descending Chicago Center
Sat 09:00:05 AM 41.2206 -89.4383 61° Northeast 423 487 21,000 -1,550 Descending Chicago Center
Sat 09:01:05 AM 41.2728 -89.3111 61° Northeast 416 479 19,700 -1,350 Descending Chicago Center
Sat 09:02:05 AM 41.3269 -89.1811 63° Northeast 405 466 18,300 -1,350 Descending Chicago Center
Sat 09:03:05 AM 41.3767 -89.0483 61° Northeast 397 457 17,000 -1,400 Descending Chicago Center
Sat 09:04:05 AM 41.4306 -88.9178 62° Northeast 392 451 15,500 -1,500 Descending Chicago Center
Sat 09:05:05 AM 41.4800 -88.7928 63° Northeast 392 451 14,000 -1,300 Descending Chicago Center
Sat 09:06:05 AM 41.5272 -88.6703 62° Northeast 381 438 12,900 -1,500 Descending Chicago Center
Sat 09:07:05 AM 41.5722 -88.5589 76° East 363 418 11,000 -1,250 Descending Chicago Center
Sat 09:08:05 AM 41.5925 -88.4531 78° East 320 368 10,400 -900 Descending Chicago Center
Sat 09:09:05 AM 41.6083 -88.3558 58° Northeast 287 330 9,200 -1,100 Descending Chicago Center
Sat 09:10:05 AM 41.6450 -88.2772 44° Northeast 258 297 8,200 -900 Descending Chicago Center
Sat 09:11:05 AM 41.6883 -88.2211 44° Northeast 232 267 7,400 -750 Descending Chicago Center
Sat 09:12:05 AM 41.7294 -88.1675 41° Northeast 213 245 6,700 -1,050 Descending Chicago Center
Sat 09:13:05 AM 41.7728 -88.1164 44° Northeast 199 229 5,300 -1,100 Descending Chicago Center
Sat 09:15:05 AM 41.8500 -88.0167 44° Northeast 173 199 3,400 -950 Descending Chicago TRACON

Login

Don't have an account? Register now (free) for customized features, flight alerts, and more!